YYE weather

Fort Nelson Airport
Fort Nelson, British Columbia, Canada

Public forecast

Using degrees Celsius for public forecast. Weather courtesy of forecast.io.

Current aviation weather report (METAR) for Fort Nelson Airport

Retrieved 2019/11/19 01:00 UTC (24 minutes ago):

CYYE 190100Z 34004KT 15SM BKN084 BKN240 M14/M16 A2987 RMK AC5CI1 SLP151

Aviation forecast (TAF) for Fort Nelson Airport

Retrieved 2019-11-19 01:42 UTC (0 seconds ago):

TAF TAF CYYE 190038Z 1901/1913 VRB03KT P6SM BKN080 FM190900 VRB03KT P6SM BKN060 TEMPO 1909/1913 5SM -SN OVC060 RMK NXT FCST BY 190700Z